sensor_id;sensor_type;location;lat;lon;timestamp;temperature;humidity
240;DHT22;104;53.590;10.004;2022-10-15T03:46:17;14.50;96.80
240;DHT22;104;53.590;10.004;2022-10-15T03:51:16;14.50;96.80
240;DHT22;104;53.590;10.004;2022-10-15T03:53:43;14.50;96.80
240;DHT22;104;53.590;10.004;2022-10-15T03:56:10;14.50;96.80
240;DHT22;104;53.590;10.004;2022-10-15T03:58:37;14.50;96.80
240;DHT22;104;53.590;10.004;2022-10-15T04:01:08;14.50;96.80
240;DHT22;104;53.590;10.004;2022-10-15T04:03:37;14.50;96.80
240;DHT22;104;53.590;10.004;2022-10-15T04:06:05;14.50;96.80
240;DHT22;104;53.590;10.004;2022-10-15T04:08:32;14.50;96.80
240;DHT22;104;53.590;10.004;2022-10-15T04:13:28;14.50;96.80
240;DHT22;104;53.590;10.004;2022-10-15T04:18:22;14.50;96.80
240;DHT22;104;53.590;10.004;2022-10-15T04:23:18;14.70;96.80
240;DHT22;104;53.590;10.004;2022-10-15T04:25:45;14.90;96.80
240;DHT22;104;53.590;10.004;2022-10-15T04:28:12;14.90;96.80
240;DHT22;104;53.590;10.004;2022-10-15T04:30:39;14.80;96.80
240;DHT22;104;53.590;10.004;2022-10-15T04:33:06;14.80;96.80
240;DHT22;104;53.590;10.004;2022-10-15T04:35:34;14.80;96.80
240;DHT22;104;53.590;10.004;2022-10-15T04:38:03;14.70;96.80
240;DHT22;104;53.590;10.004;2022-10-15T04:40:30;14.70;96.80
240;DHT22;104;53.590;10.004;2022-10-15T04:47:51;14.60;96.80
240;DHT22;104;53.590;10.004;2022-10-15T04:52:47;14.50;96.80
240;DHT22;104;53.590;10.004;2022-10-15T05:00:11;14.60;96.80
240;DHT22;104;53.590;10.004;2022-10-15T05:02:40;14.50;96.80
240;DHT22;104;53.590;10.004;2022-10-15T05:05:08;14.50;96.80
240;DHT22;104;53.590;10.004;2022-10-15T05:07:35;14.50;96.80
240;DHT22;104;53.590;10.004;2022-10-15T05:10:02;14.50;96.80
240;DHT22;104;53.590;10.004;2022-10-15T05:12:31;14.50;96.80
240;DHT22;104;53.590;10.004;2022-10-15T05:14:58;14.50;96.80
240;DHT22;104;53.590;10.004;2022-10-15T05:17:25;14.50;96.80
240;DHT22;104;53.590;10.004;2022-10-15T05:19:52;14.40;96.80
240;DHT22;104;53.590;10.004;2022-10-15T05:27:14;14.40;96.80
240;DHT22;104;53.590;10.004;2022-10-15T05:29:42;14.50;96.80
240;DHT22;104;53.590;10.004;2022-10-15T05:32:09;14.50;96.80
240;DHT22;104;53.590;10.004;2022-10-15T05:46:54;14.40;96.80
240;DHT22;104;53.590;10.004;2022-10-15T05:51:48;14.40;96.80
240;DHT22;104;53.590;10.004;2022-10-15T05:54:15;14.40;96.80
240;DHT22;104;53.590;10.004;2022-10-15T05:59:09;14.40;96.80
240;DHT22;104;53.590;10.004;2022-10-15T06:13:56;14.60;96.80
240;DHT22;104;53.590;10.004;2022-10-15T06:16:23;14.60;96.80
240;DHT22;104;53.590;10.004;2022-10-15T06:18:51;14.60;96.80
240;DHT22;104;53.590;10.004;2022-10-15T06:21:20;14.60;96.80
240;DHT22;104;53.590;10.004;2022-10-15T06:23:47;14.60;96.80
240;DHT22;104;53.590;10.004;2022-10-15T06:26:15;14.60;96.80
240;DHT22;104;53.590;10.004;2022-10-15T06:28:42;14.60;96.80
240;DHT22;104;53.590;10.004;2022-10-15T06:31:09;14.60;96.80
240;DHT22;104;53.590;10.004;2022-10-15T06:33:37;14.60;96.80
240;DHT22;104;53.590;10.004;2022-10-15T06:36:08;14.60;96.80
240;DHT22;104;53.590;10.004;2022-10-15T10:16:24;18.20;96.80
240;DHT22;104;53.590;10.004;2022-10-15T10:19:08;18.30;96.80
240;DHT22;104;53.590;10.004;2022-10-15T10:21:42;18.20;96.80
240;DHT22;104;53.590;10.004;2022-10-15T10:24:25;18.30;96.80
240;DHT22;104;53.590;10.004;2022-10-15T10:26:55;18.30;96.80
240;DHT22;104;53.590;10.004;2022-10-15T10:29:25;18.30;96.80
240;DHT22;104;53.590;10.004;2022-10-15T10:31:54;18.40;96.80
240;DHT22;104;53.590;10.004;2022-10-15T10:34:28;18.40;96.80
240;DHT22;104;53.590;10.004;2022-10-15T10:36:55;18.40;96.80
240;DHT22;104;53.590;10.004;2022-10-15T10:39:26;18.50;96.80
240;DHT22;104;53.590;10.004;2022-10-15T10:42:26;18.60;96.80
240;DHT22;104;53.590;10.004;2022-10-15T11:15:08;19.70;94.20
240;DHT22;104;53.590;10.004;2022-10-15T11:18:33;19.50;95.40
240;DHT22;104;53.590;10.004;2022-10-15T11:21:30;19.30;95.60
240;DHT22;104;53.590;10.004;2022-10-15T11:24:32;19.30;96.60
240;DHT22;104;53.590;10.004;2022-10-15T11:27:54;19.20;96.70
240;DHT22;104;53.590;10.004;2022-10-15T13:25:16;21.30;85.30
240;DHT22;104;53.590;10.004;2022-10-15T13:27:43;21.30;85.60
240;DHT22;104;53.590;10.004;2022-10-15T13:30:13;21.10;86.30
240;DHT22;104;53.590;10.004;2022-10-15T13:32:44;20.50;88.50
240;DHT22;104;53.590;10.004;2022-10-15T13:35:16;20.20;90.00
240;DHT22;104;53.590;10.004;2022-10-15T13:37:44;20.20;90.10
240;DHT22;104;53.590;10.004;2022-10-15T13:40:18;20.10;90.80
240;DHT22;104;53.590;10.004;2022-10-15T13:42:57;19.60;93.80
240;DHT22;104;53.590;10.004;2022-10-15T13:45:25;19.40;95.80
240;DHT22;104;53.590;10.004;2022-10-15T13:47:53;19.40;95.20
240;DHT22;104;53.590;10.004;2022-10-15T13:50:22;19.40;95.10
240;DHT22;104;53.590;10.004;2022-10-15T13:52:54;19.40;95.70
240;DHT22;104;53.590;10.004;2022-10-15T13:55:27;19.30;96.00
240;DHT22;104;53.590;10.004;2022-10-15T13:57:59;19.40;95.50
240;DHT22;104;53.590;10.004;2022-10-15T14:00:28;19.40;95.20
240;DHT22;104;53.590;10.004;2022-10-15T14:03:08;19.40;95.20
240;DHT22;104;53.590;10.004;2022-10-15T14:05:35;19.70;95.00
240;DHT22;104;53.590;10.004;2022-10-15T14:08:02;19.80;94.70
240;DHT22;104;53.590;10.004;2022-10-15T14:10:31;20.10;93.50
240;DHT22;104;53.590;10.004;2022-10-15T14:12:58;20.40;92.10
240;DHT22;104;53.590;10.004;2022-10-15T14:15:42;20.30;92.10
240;DHT22;104;53.590;10.004;2022-10-15T14:18:10;20.30;92.40
240;DHT22;104;53.590;10.004;2022-10-15T14:20:42;20.20;92.20
240;DHT22;104;53.590;10.004;2022-10-15T14:23:15;20.30;91.60
240;DHT22;104;53.590;10.004;2022-10-15T14:25:44;20.40;89.60
240;DHT22;104;53.590;10.004;2022-10-15T14:28:18;20.60;88.90
240;DHT22;104;53.590;10.004;2022-10-15T14:30:46;20.70;88.30
240;DHT22;104;53.590;10.004;2022-10-15T14:33:29;20.70;88.30
240;DHT22;104;53.590;10.004;2022-10-15T14:36:06;20.30;89.10
240;DHT22;104;53.590;10.004;2022-10-15T14:38:34;20.10;89.70
240;DHT22;104;53.590;10.004;2022-10-15T14:41:05;20.10;90.40
240;DHT22;104;53.590;10.004;2022-10-15T14:43:35;19.90;91.20
240;DHT22;104;53.590;10.004;2022-10-15T14:46:04;19.90;91.50
240;DHT22;104;53.590;10.004;2022-10-15T14:48:33;19.70;91.70
240;DHT22;104;53.590;10.004;2022-10-15T14:51:04;19.60;92.30
240;DHT22;104;53.590;10.004;2022-10-15T14:53:33;19.20;94.20
240;DHT22;104;53.590;10.004;2022-10-15T14:56:07;19.10;94.50
240;DHT22;104;53.590;10.004;2022-10-15T14:58:36;19.10;94.60
240;DHT22;104;53.590;10.004;2022-10-15T15:01:06;19.00;94.80
240;DHT22;104;53.590;10.004;2022-10-15T15:03:39;19.00;94.90
240;DHT22;104;53.590;10.004;2022-10-15T15:06:06;18.90;95.20
240;DHT22;104;53.590;10.004;2022-10-15T15:08:34;18.90;95.50
240;DHT22;104;53.590;10.004;2022-10-15T15:11:04;18.90;95.50
240;DHT22;104;53.590;10.004;2022-10-15T15:13:37;18.90;95.40
240;DHT22;104;53.590;10.004;2022-10-15T15:16:05;18.90;95.50
240;DHT22;104;53.590;10.004;2022-10-15T15:21:03;18.80;95.50
240;DHT22;104;53.590;10.004;2022-10-15T15:23:31;18.90;95.70
240;DHT22;104;53.590;10.004;2022-10-15T15:25:59;18.90;96.00
240;DHT22;104;53.590;10.004;2022-10-15T15:30:57;19.00;95.60
240;DHT22;104;53.590;10.004;2022-10-15T15:33:24;19.00;95.60
240;DHT22;104;53.590;10.004;2022-10-15T15:35:55;19.00;95.60
240;DHT22;104;53.590;10.004;2022-10-15T15:38:26;19.00;95.80
240;DHT22;104;53.590;10.004;2022-10-15T15:40:59;19.00;95.60
240;DHT22;104;53.590;10.004;2022-10-15T15:43:29;19.00;96.10
240;DHT22;104;53.590;10.004;2022-10-15T15:48:24;18.70;96.80
240;DHT22;104;53.590;10.004;2022-10-15T15:50:51;18.50;96.80
240;DHT22;104;53.590;10.004;2022-10-15T15:55:45;18.20;96.80
240;DHT22;104;53.590;10.004;2022-10-15T15:58:12;18.20;96.80
240;DHT22;104;53.590;10.004;2022-10-15T16:00:41;17.90;96.80
240;DHT22;104;53.590;10.004;2022-10-15T16:03:10;17.80;96.80
240;DHT22;104;53.590;10.004;2022-10-15T16:05:37;17.60;96.80
240;DHT22;104;53.590;10.004;2022-10-15T16:08:06;17.60;96.80
240;DHT22;104;53.590;10.004;2022-10-15T16:10:34;17.40;96.80
240;DHT22;104;53.590;10.004;2022-10-15T16:15:29;17.20;96.80
240;DHT22;104;53.590;10.004;2022-10-15T16:20:25;17.10;96.80
240;DHT22;104;53.590;10.004;2022-10-15T16:22:52;17.20;96.80
240;DHT22;104;53.590;10.004;2022-10-15T16:25:20;17.20;96.80
240;DHT22;104;53.590;10.004;2022-10-15T16:27:47;17.20;96.80
240;DHT22;104;53.590;10.004;2022-10-15T16:30:16;17.20;96.80
240;DHT22;104;53.590;10.004;2022-10-15T16:32:43;17.30;96.80
240;DHT22;104;53.590;10.004;2022-10-15T16:35:12;17.50;96.80
240;DHT22;104;53.590;10.004;2022-10-15T16:37:39;17.50;96.80
240;DHT22;104;53.590;10.004;2022-10-15T16:40:07;17.50;96.80
240;DHT22;104;53.590;10.004;2022-10-15T16:42:35;17.50;96.80
240;DHT22;104;53.590;10.004;2022-10-15T16:45:02;17.50;96.80
240;DHT22;104;53.590;10.004;2022-10-15T16:47:29;17.50;96.80
240;DHT22;104;53.590;10.004;2022-10-15T16:49:56;17.40;96.80
240;DHT22;104;53.590;10.004;2022-10-15T16:52:24;17.40;96.80
240;DHT22;104;53.590;10.004;2022-10-15T16:54:51;17.30;96.80
240;DHT22;104;53.590;10.004;2022-10-15T16:59:45;17.20;96.80
240;DHT22;104;53.590;10.004;2022-10-15T17:02:13;17.10;96.80
240;DHT22;104;53.590;10.004;2022-10-15T17:04:40;17.00;96.80
240;DHT22;104;53.590;10.004;2022-10-15T17:07:07;17.00;96.80
240;DHT22;104;53.590;10.004;2022-10-15T17:09:35;17.00;96.80
240;DHT22;104;53.590;10.004;2022-10-15T17:12:03;17.00;96.80
240;DHT22;104;53.590;10.004;2022-10-15T17:14:30;17.10;96.80
240;DHT22;104;53.590;10.004;2022-10-15T17:16:57;17.20;96.80
240;DHT22;104;53.590;10.004;2022-10-15T17:19:24;17.20;96.80
240;DHT22;104;53.590;10.004;2022-10-15T17:21:51;17.30;96.80
240;DHT22;104;53.590;10.004;2022-10-15T17:24:20;17.40;96.80
240;DHT22;104;53.590;10.004;2022-10-15T17:26:48;17.40;96.80
240;DHT22;104;53.590;10.004;2022-10-15T17:29:17;17.30;96.80
240;DHT22;104;53.590;10.004;2022-10-15T17:34:12;17.30;96.80
240;DHT22;104;53.590;10.004;2022-10-15T17:36:45;17.40;96.80
240;DHT22;104;53.590;10.004;2022-10-15T17:39:14;17.40;96.80
240;DHT22;104;53.590;10.004;2022-10-15T17:41:41;17.30;96.80
